createdAt,value
2019-03-17T00:00:32.786Z,99515.80
2019-03-17T00:01:36.873Z,99517.14
2019-03-17T00:02:41.068Z,99518.19
2019-03-17T00:03:45.076Z,99516.84
2019-03-17T00:04:49.221Z,99514.98
2019-03-17T00:05:53.244Z,99507.96
2019-03-17T00:06:57.272Z,99511.77
2019-03-17T00:08:02.229Z,99502.06
2019-03-17T00:09:07.507Z,99503.11
2019-03-17T00:10:11.905Z,99500.72
2019-03-17T00:11:16.092Z,99500.72
2019-03-17T00:12:20.181Z,99495.88
2019-03-17T00:13:24.304Z,99491.02
2019-03-17T00:14:28.486Z,99491.02
2019-03-17T00:15:32.569Z,99493.70
2019-03-17T00:16:36.633Z,99491.02
2019-03-17T00:17:41.856Z,99484.30
2019-03-17T00:18:44.828Z,99475.39
2019-03-17T00:19:48.913Z,99474.57
2019-03-17T00:20:52.954Z,99474.27
2019-03-17T00:21:56.994Z,99473.23
2019-03-17T00:23:01.053Z,99466.21
2019-03-17T00:24:05.216Z,99463.83
2019-03-17T00:25:10.254Z,99452.78
2019-03-17T00:26:13.502Z,99458.67
2019-03-17T00:27:17.697Z,99458.16
2019-03-17T00:28:21.685Z,99450.09
2019-03-17T00:29:26.039Z,99457.11
2019-03-17T00:30:30.332Z,99449.05
2019-03-17T00:31:34.666Z,99452.78
2019-03-17T00:32:39.072Z,99451.89
2019-03-17T00:33:43.585Z,99449.50
2019-03-17T00:34:50.755Z,99441.37
2019-03-17T00:35:52.486Z,99445.17
2019-03-17T00:36:56.725Z,99447.66
2019-03-17T00:38:00.929Z,99443.63
2019-03-17T00:39:06.370Z,99441.23
2019-03-17T00:40:10.555Z,99441.05
2019-03-17T00:41:14.660Z,99437.84
2019-03-17T00:42:18.844Z,99433.70
2019-03-17T00:43:22.869Z,99427.80
2019-03-17T00:44:26.857Z,99424.82
2019-03-17T00:45:30.977Z,99420.50
2019-03-17T00:46:35.071Z,99417.06
2019-03-17T00:47:39.179Z,99419.45
2019-03-17T00:48:43.221Z,99412.52
2019-03-17T00:49:47.393Z,99407.47
2019-03-17T00:50:51.461Z,99412.62
2019-03-17T00:51:55.556Z,99409.63
2019-03-17T00:52:59.638Z,99403.22
2019-03-17T00:54:03.706Z,99404.33
2019-03-17T00:55:07.897Z,99401.65
2019-03-17T00:56:12.007Z,99395.23
2019-03-17T00:57:16.056Z,99394.41
2019-03-17T00:58:20.231Z,99393.36
2019-03-17T00:59:24.296Z,99400.08
2019-03-17T01:00:28.505Z,99391.50
2019-03-17T01:01:32.698Z,99393.89
2019-03-17T01:02:36.792Z,99396.88
2019-03-17T01:03:41.084Z,99390.97
2019-03-17T01:04:55.666Z,99398.28
2019-03-17T01:05:49.904Z,99392.61
2019-03-17T01:06:54.388Z,99384.41
2019-03-17T01:07:58.878Z,99384.19
2019-03-17T01:09:03.426Z,99384.19
2019-03-17T01:10:07.637Z,99390.08
2019-03-17T01:11:11.687Z,99384.48
2019-03-17T01:12:15.954Z,99378.81
2019-03-17T01:13:20.142Z,99377.25
2019-03-17T01:14:24.195Z,99372.92
2019-03-17T01:15:28.256Z,99366.20
2019-03-17T01:16:32.349Z,99363.81
2019-03-17T01:17:36.429Z,99365.45
2019-03-17T01:18:40.486Z,99369.48
2019-03-17T01:19:44.561Z,99372.47
2019-03-17T01:20:48.638Z,99368.73
2019-03-17T01:21:52.746Z,99367.92
2019-03-17T01:22:56.880Z,99362.55
2019-03-17T01:24:00.957Z,99360.68
2019-03-17T01:25:05.546Z,99358.52
2019-03-17T01:26:09.564Z,99359.66
2019-03-17T01:27:13.599Z,99361.50
2019-03-17T01:28:17.754Z,99362.65
2019-03-17T01:29:21.873Z,99355.30
2019-03-17T01:30:25.948Z,99363.17
2019-03-17T01:31:30.042Z,99363.77
2019-03-17T01:32:34.100Z,99359.14
2019-03-17T01:33:38.217Z,99363.69
2019-03-17T01:34:42.261Z,99358.32
2019-03-17T01:35:46.296Z,99355.93
2019-03-17T01:36:50.355Z,99358.81
2019-03-17T01:37:54.793Z,99357.17
2019-03-17T01:38:58.918Z,99357.70
2019-03-17T01:40:02.982Z,99346.19
2019-03-17T01:41:07.090Z,99354.72
2019-03-17T01:42:11.179Z,99344.79
2019-03-17T01:43:21.677Z,99332.04
2019-03-17T01:44:25.834Z,99339.94
2019-03-17T01:45:29.913Z,99336.95
2019-03-17T01:46:34.547Z,99332.17
2019-03-17T01:47:38.720Z,99335.91
2019-03-17T01:48:42.898Z,99332.92
2019-03-17T01:49:47.005Z,99338.89
2019-03-17T01:50:51.055Z,99339.94
2019-03-17T01:51:55.161Z,99326.38
2019-03-17T01:52:59.263Z,99342.92
2019-03-17T01:54:03.383Z,99339.94
2019-03-17T01:55:07.597Z,99338.89
2019-03-17T01:56:11.675Z,99337.25
2019-03-17T01:57:15.698Z,99332.70
2019-03-17T01:58:19.726Z,99323.23
2019-03-17T01:59:23.792Z,99313.95
2019-03-17T02:00:28.056Z,99316.64
2019-03-17T02:01:32.273Z,99317.27
2019-03-17T02:02:36.589Z,99310.98
2019-03-17T02:03:40.630Z,99310.45
2019-03-17T02:04:44.689Z,99311.60
2019-03-17T02:05:48.761Z,99305.61
2019-03-17T02:06:52.829Z,99298.13
2019-03-17T02:07:56.865Z,99301.44
2019-03-17T02:09:00.888Z,99292.27
2019-03-17T02:10:05.092Z,99282.55
2019-03-17T02:11:09.176Z,99286.57
2019-03-17T02:12:13.263Z,99274.58
2019-03-17T02:13:17.329Z,99280.08
2019-03-17T02:14:21.359Z,99277.85
2019-03-17T02:15:25.385Z,99278.45
2019-03-17T02:16:29.408Z,99276.87
2019-03-17T02:17:33.449Z,99273.14
2019-03-17T02:18:37.471Z,99274.11
2019-03-17T02:19:41.507Z,99270.54
2019-03-17T02:20:45.529Z,99268.15
2019-03-17T02:21:49.550Z,99266.70
2019-03-17T02:22:53.604Z,99265.89
2019-03-17T02:23:57.644Z,99264.32
2019-03-17T02:25:01.651Z,99257.11
2019-03-17T02:26:05.745Z,99257.11
2019-03-17T02:27:09.888Z,99248.73
2019-03-17T02:28:13.908Z,99246.05
2019-03-17T02:29:18.097Z,99245.86
2019-03-17T02:30:22.200Z,99236.98
2019-03-17T02:31:26.216Z,99238.62
2019-03-17T02:32:30.247Z,99248.02
2019-03-17T02:33:34.258Z,99238.62
2019-03-17T02:34:38.293Z,99234.49
2019-03-17T02:35:42.446Z,99234.20
2019-03-17T02:36:46.548Z,99235.83
2019-03-17T02:37:50.732Z,99226.08
2019-03-17T02:38:54.778Z,99226.38
2019-03-17T02:39:58.850Z,99227.72
2019-03-17T02:41:02.849Z,99223.39
2019-03-17T02:42:06.953Z,99223.16
2019-03-17T02:43:11.053Z,99220.77
2019-03-17T02:44:15.156Z,99215.63
2019-03-17T02:45:19.193Z,99213.77
2019-03-17T02:46:23.204Z,99216.39
2019-03-17T02:47:27.215Z,99218.48
2019-03-17T02:48:31.292Z,99204.44
2019-03-17T02:49:35.365Z,99210.42
2019-03-17T02:50:39.426Z,99195.86
2019-03-17T02:51:43.528Z,99198.55
2019-03-17T02:52:47.554Z,99198.02
2019-03-17T02:53:51.600Z,99193.33
2019-03-17T02:54:55.686Z,99187.15
2019-03-17T02:55:59.759Z,99190.12
2019-03-17T02:57:03.863Z,99186.27
2019-03-17T02:58:07.899Z,99189.53
2019-03-17T02:59:11.955Z,99191.47
2019-03-17T03:00:18.442Z,99183.41
2019-03-17T03:01:20.170Z,99180.50
2019-03-17T03:02:24.227Z,99169.77
2019-03-17T03:03:28.257Z,99170.59
2019-03-17T03:04:32.268Z,99168.13
2019-03-17T03:05:36.346Z,99161.48
2019-03-17T03:06:40.450Z,99160.14
2019-03-17T03:07:44.525Z,99163.45
2019-03-17T03:08:48.638Z,99160.14
2019-03-17T03:09:52.742Z,99162.31
2019-03-17T03:10:56.827Z,99156.41
2019-03-17T03:12:00.900Z,99154.78
2019-03-17T03:13:04.958Z,99150.75
2019-03-17T03:14:09.057Z,99153.73
2019-03-17T03:15:13.182Z,99148.45
2019-03-17T03:16:17.166Z,99137.33
2019-03-17T03:17:21.193Z,99143.38
2019-03-17T03:18:25.232Z,99139.59
2019-03-17T03:19:29.204Z,99137.86
2019-03-17T03:20:33.307Z,99144.43
2019-03-17T03:21:37.350Z,99143.16
2019-03-17T03:22:41.407Z,99143.97
2019-03-17T03:23:45.493Z,99131.53
2019-03-17T03:24:49.515Z,99124.07
2019-03-17T03:25:53.575Z,99132.58
2019-03-17T03:26:57.635Z,99126.16
2019-03-17T03:28:01.704Z,99123.48
2019-03-17T03:29:05.772Z,99121.38
2019-03-17T03:30:10.053Z,99121.67
2019-03-17T03:31:14.257Z,99117.58
2019-03-17T03:32:18.349Z,99119.45
2019-03-17T03:33:22.498Z,99114.31
2019-03-17T03:34:26.534Z,99110.34
2019-03-17T03:35:30.608Z,99106.45
2019-03-17T03:36:34.666Z,99103.05
2019-03-17T03:37:38.739Z,99102.23
2019-03-17T03:38:42.794Z,99102.42
2019-03-17T03:39:46.839Z,99097.88
2019-03-17T03:40:50.875Z,99102.00
2019-03-17T03:41:54.949Z,99092.31
2019-03-17T03:42:59.378Z,99090.97
2019-03-17T03:44:03.513Z,99085.50
2019-03-17T03:45:08.045Z,99081.88
2019-03-17T03:46:12.070Z,99078.73
2019-03-17T03:47:16.131Z,99077.39
2019-03-17T03:48:20.194Z,99070.54
2019-03-17T03:49:24.280Z,99072.70
2019-03-17T03:50:28.373Z,99074.34
2019-03-17T03:51:32.419Z,99067.62
2019-03-17T03:52:36.521Z,99065.52
2019-03-17T03:53:40.624Z,99059.62
2019-03-17T03:54:44.697Z,99066.41
2019-03-17T03:55:48.778Z,99062.90
2019-03-17T03:56:52.912Z,99063.72
2019-03-17T03:57:57.969Z,99060.22
2019-03-17T03:59:02.078Z,99055.89
2019-03-17T04:00:06.870Z,99060.51
2019-03-17T04:01:10.955Z,99051.44
2019-03-17T04:02:15.009Z,99052.08
2019-03-17T04:03:19.290Z,99050.38
2019-03-17T04:04:23.346Z,99053.66
2019-03-17T04:05:27.395Z,99050.82
2019-03-17T04:06:31.429Z,99041.42
2019-03-17T04:07:35.521Z,99041.13
2019-03-17T04:08:39.688Z,99042.18
2019-03-17T04:09:43.740Z,99032.44
2019-03-17T04:10:47.799Z,99033.84
2019-03-17T04:11:51.889Z,99036.05
2019-03-17T04:12:56.061Z,99030.09
2019-03-17T04:14:00.129Z,99033.31
2019-03-17T04:15:05.281Z,99030.92
2019-03-17T04:16:09.294Z,99029.05
2019-03-17T04:17:13.383Z,99030.92
2019-03-17T04:18:18.301Z,99023.68
2019-03-17T04:19:22.532Z,99021.00
2019-03-17T04:20:26.581Z,99025.02
2019-03-17T04:21:30.705Z,99018.60
2019-03-17T04:22:34.816Z,99021.28
2019-03-17T04:23:38.910Z,99020.23
2019-03-17T04:24:43.209Z,99019.22
2019-03-17T04:25:47.315Z,99016.21
2019-03-17T04:26:52.193Z,99014.87
2019-03-17T04:27:56.315Z,99007.05
2019-03-17T04:29:00.482Z,99004.45
2019-03-17T04:30:04.765Z,98999.81
2019-03-17T04:31:08.870Z,99001.44
2019-03-17T04:32:13.241Z,99000.10
2019-03-17T04:33:17.394Z,98997.41
2019-03-17T04:34:21.424Z,98993.71
2019-03-17T04:35:25.533Z,98998.03
2019-03-17T04:36:39.477Z,98989.07
2019-03-17T04:37:33.786Z,98990.70
2019-03-17T04:38:37.904Z,98981.10
2019-03-17T04:39:42.353Z,98974.59
2019-03-17T04:40:46.895Z,98980.58
2019-03-17T04:41:50.882Z,98973.25
2019-03-17T04:42:54.911Z,98968.64
2019-03-17T04:43:58.989Z,98968.94
2019-03-17T04:45:03.124Z,98974.30
2019-03-17T04:46:07.344Z,98969.75
2019-03-17T04:47:11.431Z,98970.75
2019-03-17T04:48:15.433Z,98962.98
2019-03-17T04:49:19.474Z,98961.34
2019-03-17T04:50:23.505Z,98961.06
2019-03-17T04:51:27.602Z,98962.11
2019-03-17T04:52:31.700Z,98958.61
2019-03-17T04:53:35.721Z,98948.39
2019-03-17T04:54:39.737Z,98951.14
2019-03-17T04:55:43.726Z,98943.91
2019-03-17T04:56:47.790Z,98940.83
2019-03-17T04:57:51.816Z,98932.29
2019-03-17T04:58:55.854Z,98936.14
2019-03-17T05:00:00.028Z,98933.98
2019-03-17T05:01:04.210Z,98927.03
2019-03-17T05:02:08.569Z,98919.73
2019-03-17T05:03:12.601Z,98918.69
2019-03-17T05:04:16.679Z,98925.92
2019-03-17T05:05:20.730Z,98919.45
2019-03-17T05:06:24.834Z,98918.69
2019-03-17T05:07:28.955Z,98921.66
2019-03-17T05:08:33.101Z,98914.66
2019-03-17T05:09:37.199Z,98911.69
2019-03-17T05:10:41.269Z,98912.45
2019-03-17T05:11:45.762Z,98902.00
2019-03-17T05:12:50.306Z,98900.95
2019-03-17T05:13:54.628Z,98900.66
2019-03-17T05:14:58.983Z,98894.71
2019-03-17T05:16:03.374Z,98899.31
2019-03-17T05:17:07.572Z,98896.92
2019-03-17T05:18:11.744Z,98889.69
2019-03-17T05:19:15.805Z,98890.50
2019-03-17T05:20:19.924Z,98885.89
2019-03-17T05:21:24.115Z,98888.87
2019-03-17T05:22:28.129Z,98878.42
2019-03-17T05:23:32.256Z,98877.89
2019-03-17T05:24:36.701Z,98882.69
2019-03-17T05:25:40.829Z,98872.53
2019-03-17T05:26:45.297Z,98872.53
2019-03-17T05:27:49.521Z,98875.50
2019-03-17T05:28:53.783Z,98873.34
2019-03-17T05:29:58.120Z,98872.58
2019-03-17T05:31:02.187Z,98864.77
2019-03-17T05:32:06.556Z,98866.34
2019-03-17T05:33:10.619Z,98867.97
2019-03-17T05:34:14.742Z,98862.89
2019-03-17T05:35:18.792Z,98859.39
2019-03-17T05:36:23.018Z,98852.16
2019-03-17T05:37:27.497Z,98852.44
2019-03-17T05:38:31.709Z,98849.47
2019-03-17T05:39:35.834Z,98843.58
2019-03-17T05:40:39.961Z,98840.16
2019-03-17T05:41:44.286Z,98840.97
2019-03-17T05:42:48.728Z,98835.36
2019-03-17T05:43:53.019Z,98831.91
2019-03-17T05:44:57.378Z,98822.91
2019-03-17T05:46:01.468Z,98824.58
2019-03-17T05:47:05.753Z,98821.76
2019-03-17T05:48:09.987Z,98819.13
2019-03-17T05:49:14.211Z,98811.07
2019-03-17T05:50:18.433Z,98811.07
2019-03-17T05:51:22.519Z,98814.86
2019-03-17T05:52:26.612Z,98809.97
2019-03-17T05:53:31.770Z,98808.62
2019-03-17T05:54:35.865Z,98809.20
2019-03-17T05:55:39.995Z,98799.70
2019-03-17T05:56:44.116Z,98808.62
2019-03-17T05:57:48.656Z,98804.36
2019-03-17T05:58:52.750Z,98801.75
2019-03-17T05:59:56.889Z,98798.98
2019-03-17T06:01:01.302Z,98804.73
2019-03-17T06:02:07.179Z,98797.73
2019-03-17T06:03:11.354Z,98799.52
2019-03-17T06:04:15.655Z,98797.59
2019-03-17T06:05:19.797Z,98796.25
2019-03-17T06:06:24.019Z,98792.18
2019-03-17T06:07:28.350Z,98791.94
2019-03-17T06:08:33.657Z,98776.47
2019-03-17T06:09:37.069Z,98778.52
2019-03-17T06:10:43.160Z,98784.47
2019-03-17T06:11:48.005Z,98776.81
2019-03-17T06:12:52.438Z,98775.47
2019-03-17T06:13:57.125Z,98767.94
2019-03-17T06:15:01.407Z,98774.36
2019-03-17T06:16:05.717Z,98768.23
2019-03-17T06:17:10.660Z,98767.94
2019-03-17T06:18:14.676Z,98773.31
2019-03-17T06:19:18.700Z,98764.39
2019-03-17T06:20:22.741Z,98764.39
2019-03-17T06:21:26.765Z,98764.97
2019-03-17T06:22:30.940Z,98766.36
2019-03-17T06:23:35.067Z,98759.44
2019-03-17T06:24:39.089Z,98750.33
2019-03-17T06:25:43.165Z,98748.80
2019-03-17T06:26:47.218Z,98757.75
2019-03-17T06:27:52.190Z,98752.25
2019-03-17T06:28:58.148Z,98746.12
2019-03-17T06:30:02.704Z,98744.48
2019-03-17T06:31:07.244Z,98749.86
2019-03-17T06:32:11.709Z,98743.50
2019-03-17T06:33:16.036Z,98738.70
2019-03-17T06:34:20.529Z,98739.02
2019-03-17T06:35:24.589Z,98728.45
2019-03-17T06:36:29.353Z,98734.15
2019-03-17T06:37:33.863Z,98738.06
2019-03-17T06:38:39.112Z,98732.41
2019-03-17T06:39:43.402Z,98729.20
2019-03-17T06:40:47.463Z,98724.06
2019-03-17T06:41:51.769Z,98730.48
2019-03-17T06:42:56.056Z,98726.52
2019-03-17T06:44:00.754Z,98723.91
2019-03-17T06:45:07.686Z,98724.52
2019-03-17T06:46:11.931Z,98721.55
2019-03-17T06:47:17.080Z,98713.50
2019-03-17T06:48:22.938Z,98719.20
2019-03-17T06:49:27.187Z,98712.03
2019-03-17T06:50:32.865Z,98712.27
2019-03-17T06:51:37.666Z,98707.72
2019-03-17T06:52:42.057Z,98706.55
2019-03-17T06:53:55.777Z,98700.41
2019-03-17T06:54:51.388Z,98692.64
2019-03-17T06:55:56.453Z,98689.78
2019-03-17T06:57:00.630Z,98681.33
2019-03-17T06:58:05.457Z,98679.22
2019-03-17T06:59:12.201Z,98690.44
2019-03-17T07:00:17.228Z,98676.31
2019-03-17T07:01:21.292Z,98675.02
2019-03-17T07:02:25.569Z,98670.83
2019-03-17T07:03:31.641Z,98674.37
2019-03-17T07:04:42.416Z,98664.80
2019-03-17T07:05:48.687Z,98665.50
2019-03-17T07:06:53.166Z,98661.47
2019-03-17T07:07:57.488Z,98662.65
2019-03-17T07:09:01.627Z,98661.02
2019-03-17T07:10:06.181Z,98655.94
2019-03-17T07:11:17.440Z,98655.69
2019-03-17T07:12:21.770Z,98652.93
2019-03-17T07:13:26.386Z,98649.10
2019-03-17T07:14:31.093Z,98650.53
2019-03-17T07:15:35.165Z,98656.55
2019-03-17T07:16:39.291Z,98656.84
2019-03-17T07:17:44.206Z,98648.21
2019-03-17T07:18:50.096Z,98653.70
2019-03-17T07:19:54.247Z,98649.67
2019-03-17T07:20:59.332Z,98643.82
2019-03-17T07:22:04.462Z,98646.80
2019-03-17T07:23:08.765Z,98635.20
2019-03-17T07:24:13.181Z,98638.73
2019-03-17T07:25:22.647Z,98641.42
2019-03-17T07:26:26.991Z,98629.26
2019-03-17T07:27:31.397Z,98626.05
2019-03-17T07:28:38.550Z,98635.61
2019-03-17T07:29:42.855Z,98627.92
2019-03-17T07:30:47.075Z,98622.27
2019-03-17T07:31:51.268Z,98622.27
2019-03-17T07:32:55.485Z,98621.48
2019-03-17T07:34:00.079Z,98623.28
2019-03-17T07:35:09.316Z,98618.84
2019-03-17T07:36:14.759Z,98610.66
2019-03-17T07:37:19.215Z,98613.48
2019-03-17T07:38:23.433Z,98613.61
2019-03-17T07:39:27.661Z,98609.95
2019-03-17T07:40:32.294Z,98608.89
2019-03-17T07:41:36.466Z,98613.98
2019-03-17T07:42:40.802Z,98609.95
2019-03-17T07:43:45.128Z,98612.75
2019-03-17T07:44:49.664Z,98606.89
2019-03-17T07:45:53.852Z,98600.95
2019-03-17T07:47:00.575Z,98593.72
2019-03-17T07:48:04.756Z,98602.50
2019-03-17T07:49:08.906Z,98597.22
2019-03-17T07:50:13.171Z,98580.34
2019-03-17T07:51:17.264Z,98600.95
2019-03-17T07:52:21.366Z,98592.34
2019-03-17T07:53:25.535Z,98593.23
2019-03-17T07:54:30.253Z,98581.93
2019-03-17T07:55:34.362Z,98586.48
2019-03-17T07:56:38.710Z,98576.44
2019-03-17T07:57:42.927Z,98567.73
2019-03-17T07:58:47.240Z,98573.19
2019-03-17T07:59:51.369Z,98571.52
2019-03-17T08:00:55.573Z,98566.73
2019-03-17T08:01:59.683Z,98570.51
2019-03-17T08:03:03.786Z,98573.72
2019-03-17T08:04:07.882Z,98562.70
2019-03-17T08:05:11.959Z,98570.34
2019-03-17T08:06:16.203Z,98570.95
2019-03-17T08:07:30.320Z,98560.70
2019-03-17T08:08:34.515Z,98552.52
2019-03-17T08:09:38.679Z,98554.95
2019-03-17T08:10:42.729Z,98550.75
2019-03-17T08:11:47.163Z,98560.64
2019-03-17T08:12:51.231Z,98555.63
2019-03-17T08:13:55.440Z,98549.45
2019-03-17T08:14:59.975Z,98550.97
2019-03-17T08:16:04.168Z,98552.55
2019-03-17T08:17:08.390Z,98550.55
2019-03-17T08:18:12.560Z,98543.69
2019-03-17T08:19:16.906Z,98545.22
2019-03-17T08:20:21.506Z,98540.20
2019-03-17T08:21:25.650Z,98542.28
2019-03-17T08:22:29.727Z,98533.00
2019-03-17T08:23:34.204Z,98535.02
2019-03-17T08:24:38.428Z,98533.95
2019-03-17T08:25:42.589Z,98540.27
2019-03-17T08:26:50.021Z,98528.29
2019-03-17T08:27:52.200Z,98532.67
2019-03-17T08:28:57.099Z,98532.20
2019-03-17T08:30:01.843Z,98527.43
2019-03-17T08:31:06.312Z,98526.84
2019-03-17T08:32:11.042Z,98524.71
2019-03-17T08:33:15.242Z,98529.41
2019-03-17T08:34:19.346Z,98532.94
2019-03-17T08:35:23.548Z,98517.78
2019-03-17T08:36:27.937Z,98524.47
2019-03-17T08:37:32.144Z,98525.09
2019-03-17T08:38:36.987Z,98519.38
2019-03-17T08:39:41.338Z,98515.81
2019-03-17T08:40:45.583Z,98523.94
2019-03-17T08:41:49.860Z,98525.28
2019-03-17T08:42:54.055Z,98519.84
2019-03-17T08:43:58.208Z,98517.17
2019-03-17T08:45:02.408Z,98509.66
2019-03-17T08:46:06.551Z,98501.89
2019-03-17T08:47:10.825Z,98507.75
2019-03-17T08:48:15.065Z,98503.30
2019-03-17T08:49:19.202Z,98492.06
2019-03-17T08:50:23.949Z,98492.69
2019-03-17T08:51:28.245Z,98490.81
2019-03-17T08:52:34.550Z,98489.19
2019-03-17T08:53:38.520Z,98481.92
2019-03-17T08:54:44.557Z,98480.58
2019-03-17T08:55:48.987Z,98480.44
2019-03-17T08:56:54.155Z,98482.41
2019-03-17T08:57:58.562Z,98471.36
2019-03-17T08:59:03.770Z,98471.90
2019-03-17T09:00:09.876Z,98465.72
2019-03-17T09:01:14.205Z,98464.36
2019-03-17T09:02:19.478Z,98462.56
2019-03-17T09:03:23.720Z,98453.22
2019-03-17T09:04:28.806Z,98462.20
2019-03-17T09:05:35.126Z,98461.47
2019-03-17T09:06:39.695Z,98459.61
2019-03-17T09:07:44.172Z,98459.39
2019-03-17T09:08:49.688Z,98451.25
2019-03-17T09:09:54.101Z,98454.19
2019-03-17T09:10:59.325Z,98458.50
2019-03-17T09:12:04.521Z,98460.03
2019-03-17T09:13:09.192Z,98459.50
2019-03-17T09:14:14.526Z,98457.67
2019-03-17T09:15:19.324Z,98458.18
2019-03-17T09:16:25.687Z,98452.50
2019-03-17T09:17:29.912Z,98449.16
2019-03-17T09:18:35.220Z,98456.72
2019-03-17T09:19:39.548Z,98451.08
2019-03-17T09:20:44.457Z,98453.52
2019-03-17T09:21:48.678Z,98448.13
2019-03-17T09:22:52.971Z,98440.66
2019-03-17T09:23:57.199Z,98443.62
2019-03-17T09:25:01.485Z,98446.11
2019-03-17T09:26:06.667Z,98437.56
2019-03-17T09:27:11.991Z,98427.95
2019-03-17T09:28:16.697Z,98432.27
2019-03-17T09:29:21.339Z,98432.78
2019-03-17T09:30:26.660Z,98434.08
2019-03-17T09:31:31.094Z,98429.56
2019-03-17T09:32:36.837Z,98423.97
2019-03-17T09:33:41.023Z,98422.96
2019-03-17T09:34:45.635Z,98422.69
2019-03-17T09:35:52.558Z,98415.22
2019-03-17T09:36:57.543Z,98414.20
2019-03-17T09:38:02.858Z,98414.46
2019-03-17T09:39:08.543Z,98409.84
2019-03-17T09:40:14.592Z,98403.15
2019-03-17T09:41:19.199Z,98396.47
2019-03-17T09:42:23.350Z,98400.23
2019-03-17T09:43:27.666Z,98412.86
2019-03-17T09:44:31.815Z,98420.61
2019-03-17T09:45:36.888Z,98407.47
2019-03-17T09:46:41.476Z,98405.59
2019-03-17T09:47:46.260Z,98399.96
2019-03-17T09:48:50.853Z,98410.76
2019-03-17T09:49:55.056Z,98413.50
2019-03-17T09:50:59.176Z,98407.30
2019-03-17T09:52:03.362Z,98396.20
2019-03-17T09:53:07.488Z,98390.84
2019-03-17T09:54:14.659Z,98407.56
2019-03-17T09:55:19.007Z,98402.17
2019-03-17T09:56:23.123Z,98412.97
2019-03-17T09:57:27.493Z,98400.23
2019-03-17T09:58:31.581Z,98417.50
2019-03-17T09:59:35.904Z,98414.30
2019-03-17T10:00:40.627Z,98412.42
2019-03-17T10:01:45.053Z,98399.54
2019-03-17T10:02:49.470Z,98402.05
2019-03-17T10:03:54.226Z,98408.26
2019-03-17T10:04:58.517Z,98407.78
2019-03-17T10:06:02.878Z,98407.21
2019-03-17T10:07:06.999Z,98406.64
2019-03-17T10:08:11.313Z,98400.77
2019-03-17T10:09:15.611Z,98398.89
2019-03-17T10:10:19.763Z,98397.00
2019-03-17T10:11:24.217Z,98393.52
2019-03-17T10:12:28.443Z,98397.00
2019-03-17T10:13:32.644Z,98396.19
2019-03-17T10:14:36.979Z,98389.75
2019-03-17T10:15:41.130Z,98393.83
2019-03-17T10:16:45.213Z,98387.41
2019-03-17T10:17:49.508Z,98387.98
2019-03-17T10:18:53.695Z,98386.11
2019-03-17T10:19:57.787Z,98393.44
2019-03-17T10:21:02.170Z,98390.98
2019-03-17T10:22:06.331Z,98394.52
2019-03-17T10:23:10.619Z,98388.58
2019-03-17T10:24:14.734Z,98392.65
2019-03-17T10:25:18.980Z,98394.53
2019-03-17T10:26:23.113Z,98389.09
2019-03-17T10:27:27.280Z,98391.01
2019-03-17T10:28:31.438Z,98389.95
2019-03-17T10:29:36.145Z,98379.68
2019-03-17T10:30:40.382Z,98378.62
2019-03-17T10:31:44.486Z,98379.68
2019-03-17T10:32:48.585Z,98376.73
2019-03-17T10:33:52.952Z,98387.27
2019-03-17T10:34:57.425Z,98383.47
2019-03-17T10:36:01.631Z,98385.88
2019-03-17T10:37:06.120Z,98376.73
2019-03-17T10:38:10.618Z,98375.11
2019-03-17T10:39:14.773Z,98376.70
2019-03-17T10:40:19.142Z,98381.83
2019-03-17T10:41:23.252Z,98374.54
2019-03-17T10:42:27.432Z,98382.93
2019-03-17T10:43:32.065Z,98380.47
2019-03-17T10:44:36.334Z,98376.43
2019-03-17T10:45:40.575Z,98368.61
2019-03-17T10:46:44.814Z,98365.92
2019-03-17T10:47:49.131Z,98367.55
2019-03-17T10:48:53.304Z,98372.13
2019-03-17T10:49:57.532Z,98370.50
2019-03-17T10:51:01.824Z,98369.98
2019-03-17T10:52:06.194Z,98370.80
2019-03-17T10:53:10.451Z,98370.23
2019-03-17T10:54:15.100Z,98375.90
2019-03-17T10:55:18.974Z,98377.81
2019-03-17T10:56:23.293Z,98372.94
2019-03-17T10:57:27.487Z,98375.92
2019-03-17T10:58:31.789Z,98375.91
2019-03-17T10:59:36.153Z,98364.24
2019-03-17T11:00:40.321Z,98356.32
2019-03-17T11:01:44.601Z,98366.05
2019-03-17T11:02:48.930Z,98370.06
2019-03-17T11:03:53.814Z,98367.04
2019-03-17T11:04:58.147Z,98361.91
2019-03-17T11:06:02.331Z,98358.64
2019-03-17T11:07:06.696Z,98358.09
2019-03-17T11:08:10.892Z,98352.98
2019-03-17T11:09:24.730Z,98356.22
2019-03-17T11:10:19.818Z,98360.88
2019-03-17T11:11:24.135Z,98362.25
2019-03-17T11:12:28.903Z,98365.78
2019-03-17T11:13:33.534Z,98355.95
2019-03-17T11:14:37.821Z,98349.41
2019-03-17T11:15:42.166Z,98347.13
2019-03-17T11:16:46.376Z,98340.89
2019-03-17T11:17:50.626Z,98346.52
2019-03-17T11:18:55.058Z,98348.42
2019-03-17T11:20:00.026Z,98353.27
2019-03-17T11:21:05.387Z,98355.30
2019-03-17T11:22:10.965Z,98350.92
2019-03-17T11:23:16.223Z,98350.90
2019-03-17T11:24:29.585Z,98349.58
2019-03-17T11:25:34.066Z,98346.78
2019-03-17T11:26:38.619Z,98352.66
2019-03-17T11:27:42.977Z,98346.44
2019-03-17T11:28:47.388Z,98351.14
2019-03-17T11:29:51.649Z,98346.61
2019-03-17T11:30:59.173Z,98343.64
2019-03-17T11:32:06.338Z,98347.92
2019-03-17T11:33:07.695Z,98339.09
2019-03-17T11:34:12.066Z,98349.31
2019-03-17T11:35:16.858Z,98344.45
2019-03-17T11:36:21.153Z,98346.47
2019-03-17T11:37:25.371Z,98342.08
2019-03-17T11:38:29.683Z,98342.83
2019-03-17T11:39:38.047Z,98339.36
2019-03-17T11:40:38.276Z,98336.08
2019-03-17T11:41:42.652Z,98328.88
2019-03-17T11:42:49.544Z,98332.30
2019-03-17T11:43:51.302Z,98326.56
2019-03-17T11:44:55.500Z,98322.34
2019-03-17T11:46:00.064Z,98334.02
2019-03-17T11:47:04.399Z,98337.68
2019-03-17T11:48:08.684Z,98342.16
2019-03-17T11:49:13.070Z,98350.03
2019-03-17T11:50:17.313Z,98343.68
2019-03-17T11:51:21.492Z,98344.31
2019-03-17T11:52:25.872Z,98344.62
2019-03-17T11:53:30.052Z,98354.02
2019-03-17T11:54:34.288Z,98351.48
2019-03-17T11:55:38.498Z,98344.78
2019-03-17T11:56:42.850Z,98336.33
2019-03-17T11:57:47.477Z,98339.59
2019-03-17T11:58:51.603Z,98344.33
2019-03-17T11:59:56.206Z,98344.36
2019-03-17T12:01:00.927Z,98346.84
2019-03-17T12:02:05.758Z,98351.63
2019-03-17T12:03:09.961Z,98348.69
2019-03-17T12:04:14.506Z,98348.16
2019-03-17T12:05:19.048Z,98344.90
2019-03-17T12:06:24.068Z,98348.73
2019-03-17T12:07:28.290Z,98350.95
2019-03-17T12:08:32.590Z,98351.53
2019-03-17T12:09:45.575Z,98351.00
2019-03-17T12:10:41.158Z,98350.27
2019-03-17T12:11:45.358Z,98359.22
2019-03-17T12:12:50.775Z,98358.69
2019-03-17T12:13:54.970Z,98365.78
2019-03-17T12:14:59.314Z,98363.37
2019-03-17T12:16:03.806Z,98365.83
2019-03-17T12:17:07.975Z,98363.14
2019-03-17T12:18:12.178Z,98369.63
2019-03-17T12:19:16.461Z,98369.36
2019-03-17T12:20:20.672Z,98367.23
2019-03-17T12:21:25.026Z,98349.91
2019-03-17T12:22:29.336Z,98342.34
2019-03-17T12:23:33.611Z,98344.52
2019-03-17T12:24:38.017Z,98348.58
2019-03-17T12:25:42.354Z,98348.83
2019-03-17T12:26:46.743Z,98346.93
2019-03-17T12:27:50.874Z,98344.48
2019-03-17T12:28:55.022Z,98339.05
2019-03-17T12:29:59.260Z,98343.92
2019-03-17T12:31:03.479Z,98344.45
2019-03-17T12:32:08.937Z,98349.02
2019-03-17T12:33:13.526Z,98348.75
2019-03-17T12:34:27.881Z,98346.58
2019-03-17T12:35:22.139Z,98350.60
2019-03-17T12:36:26.312Z,98349.77